Time;durP1;ratioP1;P1;durP2;ratioP2;P2;SDS_P1;SDS_P2;PMS_P1;PMS_P2;Temp;Humidity;BMP_temperature;BMP_pressure;BME280_temperature;BME280_humidity;BME280_pressure;Samples;Min_cycle;Max_cycle;Signal;HPM_P1;HPM_P2
2024/03/23 00:00:44;;;;;;;8.18;4.50;;;13.50;99.90;;;;;;5060038;28;20028;-80
2024/03/23 00:03:11;;;;;;;7.60;4.40;;;13.50;99.90;;;;;;5060184;28;20103;-78
2024/03/23 00:05:39;;;;;;;7.32;4.20;;;13.40;99.90;;;;;;5094922;28;20043;-86
2024/03/23 00:08:07;;;;;;;7.72;4.00;;;13.40;99.90;;;;;;5095266;28;20049;-78
2024/03/23 00:10:36;;;;;;;7.05;4.25;;;13.40;99.90;;;;;;5057193;28;20036;-77
2024/03/23 00:13:04;;;;;;;9.82;3.40;;;13.40;99.90;;;;;;5056849;28;20055;-77
2024/03/23 00:15:34;;;;;;;10.30;4.55;;;13.40;99.90;;;;;;5057084;28;20469;-77
2024/03/23 00:18:01;;;;;;;6.80;4.18;;;13.40;99.90;;;;;;5056514;28;20025;-77
2024/03/23 00:20:27;;;;;;;6.20;4.15;;;13.30;99.90;;;;;;5056812;28;20033;-77
2024/03/23 00:22:54;;;;;;;7.15;3.30;;;13.30;99.90;;;;;;5074332;28;20029;-77
2024/03/23 00:25:20;;;;;;;4.75;3.30;;;13.40;99.90;;;;;;5057138;28;20396;-77
2024/03/23 00:27:47;;;;;;;5.13;3.03;;;13.40;99.90;;;;;;5056266;28;20031;-77
2024/03/23 00:30:13;;;;;;;6.18;3.58;;;13.50;99.90;;;;;;5057077;28;20020;-77
2024/03/23 00:32:40;;;;;;;5.47;3.45;;;13.50;99.90;;;;;;5039420;28;20033;-82
2024/03/23 00:35:06;;;;;;;5.43;3.50;;;13.50;99.90;;;;;;5039526;28;20036;-79
2024/03/23 00:37:33;;;;;;;8.00;3.80;;;13.50;99.90;;;;;;5039944;28;20158;-78
2024/03/23 00:39:59;;;;;;;6.15;4.30;;;13.50;99.90;;;;;;5039794;28;20595;-79
2024/03/23 00:42:26;;;;;;;6.32;3.47;;;13.50;99.90;;;;;;5056634;28;20032;-79
2024/03/23 00:44:52;;;;;;;6.60;3.50;;;13.40;99.90;;;;;;5039481;28;20242;-78
2024/03/23 00:47:19;;;;;;;5.50;3.58;;;13.40;99.90;;;;;;5056906;28;20039;-77
2024/03/23 00:49:45;;;;;;;8.15;3.58;;;13.40;99.90;;;;;;5056336;28;20025;-79
2024/03/23 00:52:12;;;;;;;5.57;3.20;;;13.40;99.90;;;;;;5056750;28;20033;-78
2024/03/23 00:54:37;;;;;;;8.63;3.42;;;13.50;99.90;;;;;;5056628;28;20028;-82
2024/03/23 00:57:03;;;;;;;5.03;2.90;;;13.50;99.90;;;;;;5056366;28;20024;-78
2024/03/23 00:59:30;;;;;;;6.05;3.15;;;13.40;99.90;;;;;;5056964;28;20051;-78
2024/03/23 01:01:56;;;;;;;6.30;2.92;;;13.40;99.90;;;;;;5055967;28;20019;-81
2024/03/23 01:04:22;;;;;;;6.25;2.85;;;13.40;99.90;;;;;;5074008;28;20024;-80
2024/03/23 01:06:47;;;;;;;4.97;3.10;;;13.40;99.90;;;;;;5073221;28;20078;-79
2024/03/23 01:09:13;;;;;;;5.93;2.90;;;13.30;99.90;;;;;;5056263;28;20457;-81
2024/03/23 01:11:39;;;;;;;4.80;2.88;;;13.40;99.90;;;;;;5073822;28;20059;-84
2024/03/23 01:14:05;;;;;;;4.45;2.80;;;13.40;99.90;;;;;;5055838;28;20453;-81
2024/03/23 01:16:31;;;;;;;4.80;2.65;;;13.40;99.90;;;;;;5056222;28;20028;-81
2024/03/23 01:18:57;;;;;;;5.20;2.80;;;13.40;99.90;;;;;;5073714;28;20047;-81
2024/03/23 01:21:23;;;;;;;4.18;2.70;;;13.40;99.90;;;;;;5073435;28;20024;-81
2024/03/23 01:23:48;;;;;;;4.82;2.60;;;13.50;99.90;;;;;;5055318;28;20028;-82
2024/03/23 01:26:14;;;;;;;7.30;3.13;;;13.50;99.90;;;;;;5073869;28;20032;-81
2024/03/23 01:28:40;;;;;;;4.50;3.05;;;13.60;99.90;;;;;;5073538;28;20031;-87
2024/03/23 01:31:06;;;;;;;5.88;3.00;;;13.60;99.90;;;;;;5055610;28;20016;-81
2024/03/23 01:33:31;;;;;;;5.93;3.13;;;13.60;99.90;;;;;;5056030;28;20024;-81
2024/03/23 01:35:57;;;;;;;4.82;2.97;;;13.60;99.90;;;;;;5073129;28;20036;-79
2024/03/23 01:38:22;;;;;;;5.47;3.33;;;13.60;99.90;;;;;;5055774;28;20070;-81
2024/03/23 01:40:48;;;;;;;8.48;2.80;;;13.60;99.90;;;;;;5055553;28;20020;-82
2024/03/23 01:43:13;;;;;;;5.05;3.00;;;13.60;99.90;;;;;;5074102;28;20446;-81
2024/03/23 01:45:39;;;;;;;5.05;3.10;;;13.60;99.90;;;;;;5055443;28;20044;-81
2024/03/23 01:48:05;;;;;;;6.65;3.20;;;13.50;99.90;;;;;;5073270;28;20032;-81
2024/03/23 01:50:35;;;;;;;6.82;3.30;;;13.50;99.90;;;;;;5055967;28;20020;-80
2024/03/23 01:53:06;;;;;;;5.82;3.08;;;13.50;99.90;;;;;;5055376;28;20099;-80
2024/03/23 01:55:32;;;;;;;5.75;3.17;;;13.50;99.90;;;;;;5073948;28;20020;-78
2024/03/23 01:57:58;;;;;;;6.10;3.00;;;13.50;99.90;;;;;;5055421;28;20021;-78
2024/03/23 02:00:24;;;;;;;5.93;3.33;;;13.50;99.90;;;;;;5073986;28;20067;-78
2024/03/23 02:02:49;;;;;;;7.13;3.08;;;13.50;99.90;;;;;;5073277;28;20025;-77
2024/03/23 02:05:15;;;;;;;5.90;3.53;;;13.40;99.90;;;;;;5055761;28;20036;-77
2024/03/23 02:07:42;;;;;;;5.95;3.30;;;13.50;99.90;;;;;;5073608;28;20364;-77
2024/03/23 02:10:13;;;;;;;7.10;3.35;;;13.50;99.90;;;;;;5055733;28;20028;-77
2024/03/23 02:12:39;;;;;;;5.65;3.33;;;13.50;99.90;;;;;;5073762;28;20042;-77
2024/03/23 02:15:04;;;;;;;5.38;3.10;;;13.50;99.90;;;;;;5073544;28;20438;-79
2024/03/23 02:17:33;;;;;;;5.75;3.20;;;13.50;99.90;;;;;;5055755;28;20024;-77
2024/03/23 02:20:00;;;;;;;7.82;3.28;;;13.50;99.90;;;;;;5055286;28;20024;-79
2024/03/23 02:22:33;;;;;;;5.68;3.67;;;13.50;99.90;;;;;;5055893;28;20107;-77
2024/03/23 02:24:59;;;;;;;5.13;3.05;;;13.40;99.90;;;;;;5073161;28;20031;-78
2024/03/23 02:27:25;;;;;;;3.97;3.08;;;13.40;99.90;;;;;;5057436;28;20111;-77
2024/03/23 02:29:50;;;;;;;6.38;3.33;;;13.40;99.90;;;;;;5059284;28;20067;-78
2024/03/23 02:32:16;;;;;;;5.38;3.33;;;13.40;99.90;;;;;;5059747;28;20046;-77
2024/03/23 02:34:41;;;;;;;7.55;3.03;;;13.40;99.90;;;;;;5058831;28;20078;-79
2024/03/23 02:37:11;;;;;;;5.15;3.15;;;13.40;99.90;;;;;;5058686;28;20047;-77
2024/03/23 02:39:37;;;;;;;5.28;2.90;;;13.50;99.90;;;;;;5059120;28;20079;-77
2024/03/23 02:42:03;;;;;;;7.80;3.15;;;13.50;99.90;;;;;;5058520;28;20457;-77
2024/03/23 02:44:28;;;;;;;5.28;3.30;;;13.50;99.90;;;;;;5058034;28;20055;-76
2024/03/23 02:46:54;;;;;;;4.93;2.67;;;13.50;99.90;;;;;;5058207;28;20028;-77
2024/03/23 02:49:21;;;;;;;5.60;3.25;;;13.50;99.90;;;;;;5076380;28;20024;-77
2024/03/23 02:51:48;;;;;;;5.75;3.28;;;13.50;99.90;;;;;;5058468;28;20074;-84
2024/03/23 02:54:14;;;;;;;5.20;3.03;;;13.50;99.90;;;;;;5076410;28;20396;-77
2024/03/23 02:56:39;;;;;;;6.43;3.53;;;13.50;99.90;;;;;;5076373;28;20032;-77
2024/03/23 02:59:05;;;;;;;5.05;3.33;;;13.50;99.90;;;;;;5058111;28;20029;-77
2024/03/23 03:01:30;;;;;;;7.22;3.50;;;13.60;99.90;;;;;;5058370;28;20021;-77
2024/03/23 03:03:56;;;;;;;7.70;3.17;;;13.50;99.90;;;;;;5075550;28;20047;-79
2024/03/23 03:06:25;;;;;;;7.07;3.60;;;13.60;99.90;;;;;;5058404;28;20059;-77
2024/03/23 03:08:51;;;;;;;7.63;3.83;;;13.60;99.90;;;;;;5057784;28;20489;-78
2024/03/23 03:11:17;;;;;;;7.88;3.38;;;13.60;99.90;;;;;;5075769;28;20021;-77
2024/03/23 03:13:42;;;;;;;8.93;3.90;;;13.50;99.90;;;;;;5057924;28;20033;-77
2024/03/23 03:16:12;;;;;;;7.53;4.05;;;13.60;99.90;;;;;;5057493;28;20048;-78
2024/03/23 03:18:38;;;;;;;8.60;4.88;;;13.60;99.90;;;;;;5058195;28;20099;-78
2024/03/23 03:21:10;;;;;;;8.45;4.53;;;13.60;99.90;;;;;;5058062;28;20035;-77
2024/03/23 03:23:39;;;;;;;7.57;4.10;;;13.50;99.90;;;;;;5058249;28;20031;-76
2024/03/23 03:26:06;;;;;;;9.20;4.53;;;13.60;99.90;;;;;;5057690;28;20042;-77
2024/03/23 03:28:32;;;;;;;8.38;4.03;;;13.60;99.90;;;;;;5076153;28;20048;-77
2024/03/23 03:30:59;;;;;;;10.45;4.40;;;13.60;99.90;;;;;;5075301;28;20025;-77
2024/03/23 03:33:25;;;;;;;9.48;4.88;;;13.60;99.90;;;;;;5057719;28;20074;-77
2024/03/23 03:35:51;;;;;;;12.32;4.38;;;13.60;99.90;;;;;;5057456;28;20055;-79
2024/03/23 03:38:18;;;;;;;9.05;4.47;;;13.60;99.90;;;;;;5075099;28;20027;-76
2024/03/23 03:40:43;;;;;;;8.57;4.18;;;13.60;99.90;;;;;;5057663;28;20029;-76
2024/03/23 03:43:09;;;;;;;11.00;4.78;;;13.60;99.90;;;;;;5074556;28;20469;-76
2024/03/23 03:45:34;;;;;;;7.05;4.35;;;13.60;99.90;;;;;;5075282;28;20182;-76
2024/03/23 03:48:00;;;;;;;8.13;4.53;;;13.50;99.90;;;;;;5057086;28;20029;-76
2024/03/23 03:50:25;;;;;;;7.72;4.25;;;13.60;99.90;;;;;;5075479;28;20025;-75
2024/03/23 03:52:51;;;;;;;8.23;4.65;;;13.60;99.90;;;;;;5075045;28;20099;-83
2024/03/23 03:55:17;;;;;;;9.88;4.95;;;13.60;99.90;;;;;;5075358;28;20339;-78
2024/03/23 03:57:42;;;;;;;7.43;4.80;;;13.50;99.90;;;;;;5057354;28;20024;-77
2024/03/23 04:00:11;;;;;;;10.50;4.95;;;13.50;99.90;;;;;;5056775;28;20025;-78
2024/03/23 04:02:38;;;;;;;12.15;5.45;;;13.40;99.90;;;;;;5057262;28;20027;-78
2024/03/23 04:05:04;;;;;;;7.43;4.65;;;13.40;99.90;;;;;;5056746;28;20020;-78
2024/03/23 04:07:29;;;;;;;9.52;5.45;;;13.40;99.90;;;;;;5075148;28;20025;-78
2024/03/23 04:09:55;;;;;;;13.13;5.80;;;13.40;99.90;;;;;;5056650;28;20020;-79
2024/03/23 04:12:21;;;;;;;10.18;5.85;;;13.40;99.90;;;;;;5057541;28;20070;-78
2024/03/23 04:14:46;;;;;;;12.23;5.32;;;13.40;99.90;;;;;;5075449;28;20375;-78
2024/03/23 04:17:12;;;;;;;11.35;5.50;;;13.30;99.90;;;;;;5074696;28;20059;-78
2024/03/23 04:19:37;;;;;;;10.93;5.97;;;13.30;99.90;;;;;;5057425;28;20031;-78
2024/03/23 04:22:03;;;;;;;11.13;5.63;;;13.30;99.90;;;;;;5056731;28;20368;-78
2024/03/23 04:24:29;;;;;;;11.75;4.95;;;13.20;99.90;;;;;;5057310;28;20112;-77
2024/03/23 04:26:54;;;;;;;10.00;5.28;;;13.20;99.90;;;;;;5056734;28;20112;-78
2024/03/23 04:29:20;;;;;;;9.85;5.32;;;13.20;99.90;;;;;;5074654;28;20024;-78
2024/03/23 04:31:46;;;;;;;9.00;4.85;;;13.20;99.90;;;;;;5074557;28;20028;-78
2024/03/23 04:34:13;;;;;;;13.90;5.40;;;13.10;99.90;;;;;;5074162;28;20433;-78
2024/03/23 04:36:38;;;;;;;12.32;5.10;;;13.10;99.90;;;;;;5074050;28;20454;-78
2024/03/23 04:39:04;;;;;;;9.13;5.05;;;13.00;99.90;;;;;;5056235;28;20024;-76
2024/03/23 04:41:29;;;;;;;10.20;4.80;;;13.00;99.90;;;;;;5056370;28;20021;-76
2024/03/23 04:43:55;;;;;;;10.80;4.78;;;12.90;99.90;;;;;;5055952;28;20044;-81
2024/03/23 04:46:21;;;;;;;7.13;4.25;;;12.90;99.90;;;;;;5074214;28;20071;-77
2024/03/23 04:48:46;;;;;;;5.93;3.70;;;12.90;99.90;;;;;;5056179;28;20036;-77
2024/03/23 04:51:21;;;;;;;8.02;3.75;;;12.90;99.90;;;;;;5073438;28;20024;-77
2024/03/23 04:53:48;;;;;;;5.47;3.65;;;12.90;99.90;;;;;;5056570;28;20039;-77
2024/03/23 04:56:14;;;;;;;6.13;3.60;;;12.90;99.90;;;;;;5055721;28;20040;-77
2024/03/23 04:58:40;;;;;;;6.40;3.00;;;13.00;99.90;;;;;;5073935;28;20038;-77
2024/03/23 05:01:05;;;;;;;5.30;3.00;;;12.90;99.90;;;;;;5055260;28;20017;-77
2024/03/23 05:03:31;;;;;;;4.95;2.40;;;12.80;99.90;;;;;;5056077;28;20045;-77
2024/03/23 05:05:56;;;;;;;5.03;2.55;;;12.80;99.90;;;;;;5055351;28;20028;-81
2024/03/23 05:08:22;;;;;;;2.65;1.60;;;12.80;99.90;;;;;;5056178;28;20124;-77
2024/03/23 05:10:47;;;;;;;4.85;1.15;;;12.70;99.90;;;;;;5056452;28;20393;-79
2024/03/23 05:13:13;;;;;;;1.73;1.20;;;12.70;99.90;;;;;;5073513;28;20025;-79
2024/03/23 05:15:39;;;;;;;2.22;1.10;;;12.70;99.90;;;;;;5056187;28;20033;-79
2024/03/23 05:18:05;;;;;;;4.70;1.10;;;12.70;99.90;;;;;;5073493;28;20074;-79
2024/03/23 05:20:31;;;;;;;2.13;0.90;;;12.50;99.90;;;;;;5055936;28;20366;-80
2024/03/23 05:22:57;;;;;;;1.73;0.90;;;12.40;99.90;;;;;;5055628;28;20024;-83
2024/03/23 05:25:22;;;;;;;1.42;0.80;;;12.30;99.90;;;;;;5073780;28;20089;-78
2024/03/23 05:27:48;;;;;;;1.60;0.80;;;12.30;99.90;;;;;;5073513;28;20021;-78
2024/03/23 05:30:14;;;;;;;2.22;1.00;;;12.10;99.90;;;;;;5055113;28;20028;-78
2024/03/23 05:32:42;;;;;;;1.15;0.68;;;12.00;99.90;;;;;;5073609;28;20028;-78
2024/03/23 05:35:09;;;;;;;1.63;0.80;;;12.10;99.90;;;;;;5054710;28;20021;-79
2024/03/23 05:37:35;;;;;;;2.85;0.70;;;12.00;99.90;;;;;;5056087;28;20020;-78
2024/03/23 05:40:03;;;;;;;1.65;0.60;;;12.00;99.90;;;;;;5073056;28;20070;-79
2024/03/23 05:42:29;;;;;;;4.82;0.70;;;11.90;99.90;;;;;;5055762;28;20073;-78
2024/03/23 05:44:54;;;;;;;0.57;0.43;;;11.90;99.90;;;;;;5073112;28;20131;-84
2024/03/23 05:47:20;;;;;;;1.02;0.60;;;11.90;99.90;;;;;;5055308;28;20024;-78
2024/03/23 05:49:46;;;;;;;0.85;0.50;;;11.80;99.90;;;;;;5073116;28;20020;-77
2024/03/23 05:52:13;;;;;;;0.70;0.60;;;11.90;99.90;;;;;;5055272;28;20027;-77
2024/03/23 05:54:38;;;;;;;0.95;0.50;;;11.80;99.90;;;;;;5055647;28;20092;-78
2024/03/23 05:57:07;;;;;;;0.45;0.45;;;11.80;99.90;;;;;;5072431;28;20028;-78
2024/03/23 05:59:33;;;;;;;0.60;0.40;;;11.70;99.90;;;;;;5055824;28;20031;-76
2024/03/23 06:01:58;;;;;;;1.50;0.40;;;11.60;99.90;;;;;;5057843;28;20107;-87
2024/03/23 06:04:24;;;;;;;0.77;0.30;;;11.60;99.90;;;;;;5077080;28;20430;-79
2024/03/23 06:06:52;;;;;;;0.40;0.40;;;11.60;99.90;;;;;;5059718;28;20047;-79
2024/03/23 06:09:18;;;;;;;0.40;0.38;;;11.50;99.90;;;;;;5059251;28;20025;-78
2024/03/23 06:11:43;;;;;;;1.90;0.32;;;11.50;99.90;;;;;;5077399;28;20078;-78
2024/03/23 06:14:09;;;;;;;0.43;0.43;;;11.40;99.90;;;;;;5076396;28;20037;-77
2024/03/23 06:16:34;;;;;;;1.60;0.30;;;11.40;99.90;;;;;;5077121;28;20104;-78
2024/03/23 06:19:03;;;;;;;0.73;0.30;;;11.30;99.90;;;;;;5076752;28;20020;-83
2024/03/23 06:21:29;;;;;;;0.43;0.32;;;11.30;99.90;;;;;;5077598;28;20050;-78
2024/03/23 06:23:54;;;;;;;0.32;0.30;;;11.30;99.90;;;;;;5059437;28;20027;-77
2024/03/23 06:26:20;;;;;;;0.38;0.38;;;11.30;99.90;;;;;;5059286;28;20024;-78
2024/03/23 06:28:47;;;;;;;0.90;0.40;;;11.30;99.90;;;;;;5059697;28;20035;-77
2024/03/23 06:31:12;;;;;;;0.40;0.32;;;11.30;99.90;;;;;;5076533;28;20024;-77
2024/03/23 06:33:39;;;;;;;1.20;0.47;;;11.30;99.90;;;;;;5059345;28;20073;-76
2024/03/23 06:36:05;;;;;;;0.40;0.40;;;11.20;99.90;;;;;;5059039;28;20032;-79
2024/03/23 06:38:31;;;;;;;0.50;0.47;;;11.20;99.90;;;;;;5077089;28;20030;-78
2024/03/23 06:40:56;;;;;;;0.40;0.40;;;11.20;99.90;;;;;;5059272;28;20025;-78
2024/03/23 06:43:22;;;;;;;0.45;0.45;;;11.10;99.90;;;;;;5076207;28;20087;-77
2024/03/23 06:45:54;;;;;;;1.90;0.50;;;11.10;99.90;;;;;;5059325;28;20039;-78
2024/03/23 06:48:20;;;;;;;0.40;0.40;;;11.10;99.90;;;;;;5058474;28;20025;-78
2024/03/23 06:50:46;;;;;;;0.32;0.32;;;11.10;99.90;;;;;;5059179;28;20356;-78
2024/03/23 06:53:13;;;;;;;0.32;0.30;;;11.10;99.90;;;;;;5058778;28;20310;-78
2024/03/23 06:55:38;;;;;;;0.32;0.32;;;11.20;99.90;;;;;;5059160;28;20069;-78
2024/03/23 06:58:04;;;;;;;0.22;0.20;;;11.10;99.90;;;;;;5076301;28;20103;-78
2024/03/23 07:00:30;;;;;;;0.22;0.22;;;11.00;99.90;;;;;;5076787;28;20016;-78
2024/03/23 07:02:56;;;;;;;0.30;0.20;;;10.80;99.90;;;;;;5076473;28;20103;-78
2024/03/23 07:05:21;;;;;;;0.10;0.10;;;10.70;99.90;;;;;;5076022;28;20056;-78
2024/03/23 07:07:47;;;;;;;0.25;0.20;;;10.70;99.90;;;;;;5058601;28;20498;-79
2024/03/23 07:10:13;;;;;;;1.08;0.20;;;10.60;99.90;;;;;;5058164;28;20115;-78
2024/03/23 07:12:39;;;;;;;0.20;0.20;;;10.70;99.90;;;;;;5057792;28;20028;-78
2024/03/23 07:15:05;;;;;;;0.35;0.20;;;10.70;99.90;;;;;;5058334;28;20031;-83
2024/03/23 07:17:32;;;;;;;1.02;0.20;;;10.70;99.90;;;;;;5076699;28;20028;-78
2024/03/23 07:19:58;;;;;;;0.10;0.10;;;10.70;99.90;;;;;;5058658;28;20017;-78
2024/03/23 07:22:24;;;;;;;0.10;0.10;;;10.60;99.90;;;;;;5075944;28;20245;-78
2024/03/23 07:24:49;;;;;;;0.20;0.20;;;10.60;99.90;;;;;;5075969;28;20017;-78
2024/03/23 07:27:15;;;;;;;0.65;0.10;;;10.60;99.90;;;;;;5057555;28;20074;-77
2024/03/23 07:29:40;;;;;;;0.10;0.10;;;10.60;99.90;;;;;;5075925;28;20024;-77
2024/03/23 07:32:06;;;;;;;1.15;0.20;;;10.60;99.90;;;;;;5058290;28;20021;-77
2024/03/23 07:34:31;;;;;;;0.10;0.10;;;10.70;99.90;;;;;;5057740;28;20453;-77
2024/03/23 07:36:57;;;;;;;0.20;0.20;;;10.70;99.90;;;;;;5075949;28;20036;-76
2024/03/23 07:39:23;;;;;;;0.30;0.20;;;10.80;99.90;;;;;;5057444;28;20031;-77
2024/03/23 07:41:48;;;;;;;1.05;0.20;;;10.90;99.90;;;;;;5058167;28;20016;-77
2024/03/23 07:44:14;;;;;;;0.20;0.20;;;10.90;99.90;;;;;;5057150;28;20048;-77
2024/03/23 07:46:39;;;;;;;0.63;0.10;;;10.90;99.90;;;;;;5075618;28;20031;-77
2024/03/23 07:49:05;;;;;;;0.20;0.20;;;10.90;99.90;;;;;;5075033;28;20055;-83
2024/03/23 07:51:30;;;;;;;0.20;0.10;;;10.90;99.90;;;;;;5057466;28;20031;-77
2024/03/23 07:53:56;;;;;;;0.10;0.10;;;10.80;99.90;;;;;;5057421;28;20112;-77
2024/03/23 07:56:23;;;;;;;1.08;0.20;;;10.70;99.90;;;;;;5057770;28;20036;-77
2024/03/23 07:58:49;;;;;;;4.10;0.70;;;10.70;99.90;;;;;;5075600;28;20441;-77
2024/03/23 08:01:16;;;;;;;0.47;0.28;;;10.80;99.90;;;;;;5074875;28;20027;-77
2024/03/23 08:03:45;;;;;;;0.70;0.40;;;11.00;99.90;;;;;;5074946;28;20052;-77
2024/03/23 08:06:19;;;;;;;2.92;0.75;;;10.90;99.90;;;;;;5073873;28;20079;-78
2024/03/23 08:08:47;;;;;;;1.98;1.67;;;10.90;99.90;;;;;;5074528;28;20032;-77
2024/03/23 08:11:13;;;;;;;5.57;0.75;;;10.80;99.90;;;;;;5073903;28;20025;-78
2024/03/23 08:13:40;;;;;;;2.53;0.93;;;10.80;99.90;;;;;;5056521;28;20024;-78
2024/03/23 08:16:07;;;;;;;2.83;0.93;;;10.70;99.90;;;;;;5056125;28;20029;-85
2024/03/23 08:18:32;;;;;;;4.80;1.13;;;10.80;99.90;;;;;;5074245;28;20027;-77
2024/03/23 08:21:03;;;;;;;2.92;1.08;;;10.70;99.90;;;;;;5056237;28;20358;-78
2024/03/23 08:23:31;;;;;;;2.55;0.82;;;10.80;99.90;;;;;;5064653;28;20023;-78
2024/03/23 08:26:04;;;;;;;1.40;0.65;;;10.90;99.90;;;;;;5093688;28;20038;-77
2024/03/23 08:28:30;;;;;;;7.03;1.00;;;10.90;99.90;;;;;;5094079;28;20460;-78
2024/03/23 08:30:56;;;;;;;3.05;0.95;;;10.90;99.90;;;;;;5076487;28;20062;-77
2024/03/23 08:33:25;;;;;;;3.35;0.93;;;10.90;99.90;;;;;;5075754;28;20054;-77
2024/03/23 08:36:02;;;;;;;2.10;0.90;;;10.80;99.90;;;;;;5076252;28;20047;-77
2024/03/23 08:38:28;;;;;;;4.50;1.20;;;10.90;99.90;;;;;;5076250;28;20537;-77
2024/03/23 08:41:02;;;;;;;5.90;1.90;;;10.80;99.90;;;;;;5076420;28;20115;-77
2024/03/23 08:43:29;;;;;;;5.00;1.63;;;10.80;99.90;;;;;;5075207;28;20119;-80
2024/03/23 08:46:03;;;;;;;4.65;1.30;;;10.70;99.90;;;;;;5094338;28;20019;-78
2024/03/23 08:48:29;;;;;;;5.80;1.25;;;10.70;99.90;;;;;;5075980;28;20135;-79
2024/03/23 08:51:03;;;;;;;7.40;1.42;;;10.60;99.90;;;;;;5076492;28;20107;-78
2024/03/23 08:53:29;;;;;;;6.13;1.27;;;10.60;99.80;;;;;;5076092;28;20166;-79
2024/03/23 08:56:00;;;;;;;6.50;1.67;;;10.50;98.90;;;;;;5076566;28;20032;-79
2024/03/23 08:58:27;;;;;;;4.78;1.30;;;10.60;98.90;;;;;;5075944;28;20027;-79
2024/03/23 09:00:58;;;;;;;5.95;1.60;;;10.60;98.70;;;;;;5094597;28;20170;-79
2024/03/23 09:03:26;;;;;;;4.72;1.17;;;10.60;97.90;;;;;;5093744;28;20016;-79
2024/03/23 09:05:52;;;;;;;5.93;1.42;;;10.70;96.80;;;;;;5094204;28;20024;-77
2024/03/23 09:08:19;;;;;;;8.27;1.83;;;10.80;96.70;;;;;;5093862;28;20028;-78
2024/03/23 09:10:45;;;;;;;5.13;1.70;;;10.70;96.50;;;;;;5076702;28;20050;-77
2024/03/23 09:13:11;;;;;;;5.30;1.42;;;10.80;96.20;;;;;;5075633;28;20468;-84
2024/03/23 09:15:45;;;;;;;2.88;1.20;;;10.80;95.90;;;;;;5094377;28;20032;-77
2024/03/23 09:18:11;;;;;;;5.78;1.58;;;10.90;95.90;;;;;;5075785;28;20364;-83
2024/03/23 09:20:36;;;;;;;4.28;1.50;;;11.00;95.70;;;;;;5075565;28;20110;-76
2024/03/23 09:23:02;;;;;;;4.88;1.45;;;11.00;95.20;;;;;;5075975;28;20020;-77
2024/03/23 09:25:27;;;;;;;4.63;1.50;;;10.90;95.50;;;;;;5093614;28;20052;-78
2024/03/23 09:27:53;;;;;;;5.43;1.60;;;10.90;95.70;;;;;;5076012;28;20050;-78
2024/03/23 09:30:19;;;;;;;6.45;1.45;;;10.90;96.10;;;;;;5075205;28;20027;-83
2024/03/23 09:32:46;;;;;;;2.65;1.27;;;11.00;96.00;;;;;;5077057;28;20016;-81
2024/03/23 09:35:11;;;;;;;6.18;1.45;;;11.00;95.80;;;;;;5093260;28;20468;-82
2024/03/23 09:37:39;;;;;;;7.63;1.52;;;11.00;95.60;;;;;;5073264;28;20025;-84
2024/03/23 09:40:09;;;;;;;5.30;1.50;;;11.00;95.90;;;;;;5056399;28;20495;-83
2024/03/23 09:42:35;;;;;;;8.73;2.38;;;10.90;95.90;;;;;;5055585;28;20048;-84
2024/03/23 09:45:01;;;;;;;3.38;1.90;;;10.90;97.00;;;;;;5055276;28;20088;-84
2024/03/23 09:47:28;;;;;;;11.05;1.98;;;10.80;97.10;;;;;;5072247;28;20041;-77
2024/03/23 09:49:54;;;;;;;4.38;1.70;;;10.60;98.80;;;;;;5054978;28;20035;-77
2024/03/23 09:52:20;;;;;;;5.35;1.88;;;10.60;99.20;;;;;;5054582;28;20420;-77
2024/03/23 09:54:46;;;;;;;6.53;2.47;;;10.50;99.00;;;;;;5072998;28;20021;-77
2024/03/23 09:57:11;;;;;;;6.93;2.20;;;10.50;99.70;;;;;;5055048;28;20476;-83
2024/03/23 09:59:37;;;;;;;4.63;1.90;;;10.40;99.80;;;;;;5055136;28;20032;-76
2024/03/23 10:02:02;;;;;;;6.28;1.95;;;10.40;99.90;;;;;;5088983;28;20024;-77
2024/03/23 10:04:41;;;;;;;6.45;1.92;;;10.20;99.90;;;;;;5074551;28;20106;-81
2024/03/23 10:07:21;;;;;;;6.70;1.77;;;10.10;99.90;;;;;;5075791;28;20457;-76
2024/03/23 10:09:48;;;;;;;6.18;1.60;;;10.00;99.90;;;;;;5075525;28;20043;-76
2024/03/23 10:12:15;;;;;;;3.75;1.73;;;9.90;99.90;;;;;;5075192;28;20024;-80
2024/03/23 10:14:41;;;;;;;5.90;1.80;;;9.90;99.90;;;;;;5075247;28;20044;-76
2024/03/23 10:17:18;;;;;;;4.43;2.05;;;10.00;99.90;;;;;;5093065;28;20491;-76
2024/03/23 10:19:45;;;;;;;4.20;1.67;;;10.00;99.90;;;;;;5074511;28;20021;-77
2024/03/23 10:22:14;;;;;;;4.22;1.30;;;10.10;99.90;;;;;;5074802;28;20016;-79
2024/03/23 10:24:40;;;;;;;2.78;1.38;;;10.20;99.90;;;;;;5074665;28;20050;-77
2024/03/23 10:27:06;;;;;;;4.60;1.60;;;10.30;99.90;;;;;;5092662;28;20067;-77
2024/03/23 10:29:31;;;;;;;2.30;1.40;;;10.50;99.90;;;;;;5074623;28;20055;-76
2024/03/23 10:32:11;;;;;;;8.98;1.60;;;10.60;99.90;;;;;;5081510;28;21011;-76
2024/03/23 10:34:37;;;;;;;3.30;1.08;;;10.60;99.90;;;;;;5099886;28;20111;-76
2024/03/23 10:37:04;;;;;;;4.10;1.20;;;10.50;99.30;;;;;;5086168;28;20028;-77
2024/03/23 10:39:40;;;;;;;3.85;1.30;;;10.40;99.60;;;;;;5101012;28;20047;-77
2024/03/23 10:42:14;;;;;;;3.10;1.30;;;10.40;99.90;;;;;;5084146;28;20107;-77
2024/03/23 10:44:40;;;;;;;6.18;1.60;;;10.30;99.70;;;;;;5083237;28;20039;-78
2024/03/23 10:47:06;;;;;;;1.88;0.90;;;10.10;99.90;;;;;;5099086;28;20411;-77
2024/03/23 10:49:33;;;;;;;4.10;1.30;;;10.10;99.90;;;;;;5107885;28;20460;-77
2024/03/23 10:52:06;;;;;;;3.22;1.00;;;10.00;99.90;;;;;;5086855;28;20027;-76
2024/03/23 10:54:35;;;;;;;2.85;1.10;;;10.00;99.90;;;;;;5086391;28;20043;-75
2024/03/23 10:57:13;;;;;;;3.67;0.95;;;10.10;99.90;;;;;;5087166;28;20032;-75
2024/03/23 10:59:39;;;;;;;2.33;1.17;;;10.10;98.90;;;;;;5084217;28;20150;-80
2024/03/23 11:02:08;;;;;;;5.75;1.30;;;10.10;99.40;;;;;;5084620;28;20024;-80
2024/03/23 11:04:35;;;;;;;5.95;1.48;;;10.20;99.10;;;;;;5101821;28;20058;-79
2024/03/23 11:07:19;;;;;;;6.90;1.52;;;10.30;98.50;;;;;;5101688;28;20031;-78
2024/03/23 11:09:45;;;;;;;6.43;1.10;;;10.50;99.10;;;;;;5084958;28;20055;-79
2024/03/23 11:12:22;;;;;;;7.35;1.17;;;10.80;98.60;;;;;;5103007;28;20050;-78
2024/03/23 11:15:10;;;;;;;3.75;1.00;;;10.80;97.40;;;;;;5087982;28;20871;-77
2024/03/23 11:17:36;;;;;;;5.30;1.05;;;10.90;97.80;;;;;;5083332;28;20039;-76
2024/03/23 11:20:03;;;;;;;6.88;1.20;;;10.90;97.90;;;;;;5105342;28;20024;-79
2024/03/23 11:22:39;;;;;;;4.40;1.27;;;11.10;98.00;;;;;;5098330;28;20131;-80
2024/03/23 11:25:24;;;;;;;4.68;1.20;;;11.00;96.20;;;;;;5105047;28;20023;-79
2024/03/23 11:27:54;;;;;;;3.25;1.13;;;11.00;97.10;;;;;;5107349;28;20031;-79
2024/03/23 11:30:22;;;;;;;5.75;1.17;;;11.10;97.30;;;;;;5084261;28;20031;-79
2024/03/23 11:32:49;;;;;;;4.13;1.50;;;11.20;97.60;;;;;;5088920;28;20024;-81
2024/03/23 11:35:27;;;;;;;2.10;1.10;;;11.20;97.90;;;;;;5086723;28;20031;-85
2024/03/23 11:38:05;;;;;;;8.77;3.35;;;11.10;99.10;;;;;;5087026;28;20036;-80
2024/03/23 11:40:31;;;;;;;5.88;1.17;;;11.00;98.80;;;;;;5086242;28;20089;-81
2024/03/23 11:42:59;;;;;;;5.28;1.52;;;10.80;99.50;;;;;;5084182;28;20457;-79
2024/03/23 11:45:25;;;;;;;6.47;1.38;;;10.80;99.90;;;;;;5088317;28;20047;-78
2024/03/23 11:48:07;;;;;;;5.80;1.45;;;10.70;99.90;;;;;;5090017;28;20047;-80
2024/03/23 11:50:33;;;;;;;;;;;10.70;99.90;;;;;;5089683;28;20055;-78
2024/03/23 11:53:19;;;;;;;4.97;1.48;;;10.60;99.50;;;;;;5096814;28;19935;-81
2024/03/23 11:55:53;;;;;;;3.15;1.40;;;10.70;99.90;;;;;;5088859;28;20023;-79
2024/03/23 11:58:22;;;;;;;4.60;1.45;;;10.90;99.90;;;;;;5102808;28;20016;-80
2024/03/23 12:00:57;;;;;;;3.30;1.17;;;11.00;99.90;;;;;;5085667;28;20020;-77
2024/03/23 12:03:25;;;;;;;5.82;1.52;;;11.50;99.90;;;;;;5084574;28;20068;-77
2024/03/23 12:05:53;;;;;;;7.18;1.88;;;11.70;99.90;;;;;;5102992;28;20016;-77
2024/03/23 12:08:22;;;;;;;4.00;1.23;;;11.90;99.00;;;;;;5103592;28;20030;-80
2024/03/23 12:10:49;;;;;;;8.00;1.50;;;12.10;99.90;;;;;;5108439;28;20020;-81
2024/03/23 12:13:21;;;;;;;3.85;1.25;;;12.20;96.80;;;;;;5084547;28;20524;-81
2024/03/23 12:15:50;;;;;;;5.65;1.50;;;12.20;98.10;;;;;;5087780;28;20169;-78
2024/03/23 12:18:16;;;;;;;4.70;1.60;;;12.00;97.10;;;;;;5082228;28;20476;-81
2024/03/23 12:20:41;;;;;;;4.90;1.10;;;12.10;96.40;;;;;;5099327;28;20024;-78
2024/03/23 12:23:08;;;;;;;4.75;1.13;;;12.30;96.50;;;;;;5102299;28;20120;-80
2024/03/23 12:25:35;;;;;;;6.60;1.90;;;11.90;93.40;;;;;;5085595;28;20054;-80
2024/03/23 12:28:01;;;;;;;6.00;1.42;;;11.90;93.70;;;;;;5088852;28;20491;-78
2024/03/23 12:30:27;;;;;;;6.20;1.58;;;11.90;93.00;;;;;;5083165;28;20020;-80
2024/03/23 12:32:53;;;;;;;6.72;1.52;;;12.40;92.70;;;;;;5086450;28;20055;-78
2024/03/23 12:35:18;;;;;;;3.20;1.25;;;12.20;91.20;;;;;;5103879;28;20032;-80
2024/03/23 12:37:44;;;;;;;4.28;1.10;;;12.30;91.40;;;;;;5084958;28;20041;-79
2024/03/23 12:40:10;;;;;;;4.65;1.20;;;12.50;91.60;;;;;;5085288;28;20077;-79
2024/03/23 12:42:36;;;;;;;3.72;0.98;;;12.60;90.20;;;;;;5100350;28;20038;-81
2024/03/23 12:45:02;;;;;;;5.72;1.00;;;12.50;89.30;;;;;;5087210;28;20385;-80